Time;durP1;ratioP1;P1;durP2;ratioP2;P2;SDS_P1;SDS_P2;PMS_P1;PMS_P2;Temp;Humidity;BMP_temperature;BMP_pressure;BME280_temperature;BME280_humidity;BME280_pressure;Samples;Min_cycle;Max_cycle;Signal;HPM_P1;HPM_P2
2023/07/31 00:02:25;;;;;;;3.75;1.63;;;;;;;16.80;100.00;99460.41;5032242;28;20064;-45
2023/07/31 00:04:52;;;;;;;3.70;1.23;;;;;;;16.80;100.00;99468.78;5032300;28;20406;-45
2023/07/31 00:07:19;;;;;;;3.28;1.10;;;;;;;16.77;100.00;99467.63;5032404;28;20053;-45
2023/07/31 00:09:45;;;;;;;3.58;1.65;;;;;;;16.76;100.00;99468.03;5032467;28;20052;-45
2023/07/31 00:12:12;;;;;;;2.90;0.98;;;;;;;16.74;100.00;99456.47;5032503;28;20054;-49
2023/07/31 00:14:39;;;;;;;2.85;1.30;;;;;;;16.73;100.00;99452.09;5032214;28;20111;-48
2023/07/31 00:17:07;;;;;;;1.70;0.90;;;;;;;16.73;100.00;99455.66;5032344;28;20657;-48
2023/07/31 00:19:34;;;;;;;3.95;1.98;;;;;;;16.73;100.00;99443.72;5031895;28;20060;-45
2023/07/31 00:22:00;;;;;;;3.88;1.00;;;;;;;16.69;100.00;99442.97;5030451;28;20049;-45
2023/07/31 00:24:27;;;;;;;3.70;1.27;;;;;;;16.67;100.00;99445.38;5031694;28;20060;-45
2023/07/31 00:26:54;;;;;;;4.10;0.93;;;;;;;16.66;100.00;99444.59;5032075;28;20132;-45
2023/07/31 00:29:21;;;;;;;1.88;1.17;;;;;;;16.66;100.00;99449.38;5032118;28;20176;-46
2023/07/31 00:31:48;;;;;;;3.45;1.33;;;;;;;16.66;100.00;99444.59;5031613;28;20126;-46
2023/07/31 00:34:15;;;;;;;5.82;1.40;;;;;;;16.67;100.00;99439.78;5031865;28;20120;-45
2023/07/31 00:36:41;;;;;;;2.22;1.00;;;;;;;16.64;100.00;99435.03;5031551;28;20095;-45
2023/07/31 00:39:08;;;;;;;2.45;1.30;;;;;;;16.62;100.00;99443.06;5032055;28;20038;-45
2023/07/31 00:41:35;;;;;;;2.90;1.00;;;;;;;16.59;100.00;99452.25;5030516;28;20049;-45
2023/07/31 00:44:02;;;;;;;2.33;1.58;;;;;;;16.55;100.00;99446.72;5031584;28;20045;-45
2023/07/31 00:46:29;;;;;;;1.65;0.73;;;;;;;16.53;100.00;99442.75;5031734;28;20042;-45
2023/07/31 00:48:56;;;;;;;3.65;1.50;;;;;;;16.50;100.00;99447.13;5030712;28;20045;-46
2023/07/31 00:51:23;;;;;;;4.10;1.20;;;;;;;16.48;100.00;99434.78;5031547;28;20045;-45
2023/07/31 00:53:54;;;;;;;6.32;1.45;;;;;;;16.48;100.00;99440.38;5031191;28;20111;-45
2023/07/31 00:56:21;;;;;;;3.45;1.67;;;;;;;16.44;100.00;99451.63;5031830;28;20041;-46
2023/07/31 00:58:48;;;;;;;3.20;1.20;;;;;;;16.42;100.00;99454.81;5032471;28;20464;-46
2023/07/31 01:01:15;;;;;;;2.88;1.00;;;;;;;16.40;100.00;99454.44;5031452;28;20060;-45
2023/07/31 01:03:44;;;;;;;1.50;0.85;;;;;;;16.41;100.00;99446.84;5031130;28;20064;-47
2023/07/31 01:06:13;;;;;;;2.83;1.10;;;;;;;16.39;100.00;99452.84;5030878;28;20133;-46
2023/07/31 01:09:03;;;;;;;1.83;1.05;;;;;;;16.37;100.00;99460.84;5031727;28;20140;-49
2023/07/31 01:11:48;;;;;;;2.35;1.05;;;;;;;16.34;100.00;99446.91;5024607;28;20041;-47
2023/07/31 01:14:15;;;;;;;5.75;1.40;;;;;;;16.34;100.00;99444.13;5031636;28;20060;-45
2023/07/31 01:16:42;;;;;;;4.25;1.13;;;;;;;16.35;100.00;99440.13;5031381;28;20050;-46
2023/07/31 01:19:11;;;;;;;1.38;0.70;;;;;;;16.33;100.00;99432.19;5031299;28;20554;-46
2023/07/31 01:21:58;;;;;;;3.75;0.95;;;;;;;16.35;100.00;99428.97;5031287;28;20049;-45
2023/07/31 01:24:44;;;;;;;2.45;0.77;;;;;;;16.34;100.00;99428.16;5030621;28;20495;-45
2023/07/31 01:27:15;;;;;;;1.95;0.93;;;;;;;16.33;100.00;99432.19;5030439;28;20050;-45
2023/07/31 01:30:14;;;;;;;1.33;1.20;;;;;;;16.35;100.00;99426.97;5031590;28;20395;-45
2023/07/31 01:32:42;;;;;;;1.85;0.80;;;;;;;16.34;100.00;99433.75;5030088;28;20092;-46
2023/07/31 01:35:09;;;;;;;3.05;1.02;;;;;;;16.33;100.00;99423.81;5031334;28;20041;-46
2023/07/31 01:37:36;;;;;;;1.33;0.70;;;;;;;16.31;100.00;99428.97;5030953;28;20067;-44
2023/07/31 01:40:05;;;;;;;2.95;1.00;;;;;;;16.31;100.00;99434.56;5030856;28;20140;-52
2023/07/31 01:42:31;;;;;;;1.80;0.80;;;;;;;16.30;100.00;99437.78;5031312;28;20404;-44
2023/07/31 01:44:58;;;;;;;1.95;0.60;;;;;;;16.29;100.00;99425.81;5030629;28;20068;-45
2023/07/31 01:47:25;;;;;;;2.55;0.65;;;;;;;16.29;100.00;99419.44;5030844;28;20045;-46
2023/07/31 01:49:52;;;;;;;0.85;0.55;;;;;;;16.28;100.00;99431.84;5030787;28;20045;-45
2023/07/31 01:52:19;;;;;;;1.40;0.70;;;;;;;16.25;100.00;99430.66;5031140;28;20061;-48
2023/07/31 01:54:45;;;;;;;1.75;0.70;;;;;;;16.24;100.00;99434.66;5030849;28;20081;-46
2023/07/31 01:57:12;;;;;;;3.08;1.05;;;;;;;16.22;100.00;99437.09;5021802;28;20041;-45
2023/07/31 01:59:39;;;;;;;1.88;0.52;;;;;;;16.22;100.00;99433.50;5030739;28;20045;-44
2023/07/31 02:02:06;;;;;;;1.63;0.65;;;;;;;16.23;100.00;99433.06;5030598;28;20060;-45
2023/07/31 02:04:32;;;;;;;2.38;0.85;;;;;;;16.22;100.00;99436.28;5013176;28;20148;-45
2023/07/31 02:06:59;;;;;;;2.47;0.60;;;;;;;16.21;100.00;99441.06;5030803;28;20760;-46
2023/07/31 02:09:26;;;;;;;3.75;0.80;;;;;;;16.19;100.00;99449.06;5030765;28;20144;-47
2023/07/31 02:11:53;;;;;;;3.60;0.75;;;;;;;16.17;100.00;99440.31;5025062;28;20042;-45
2023/07/31 02:14:20;;;;;;;1.10;0.65;;;;;;;16.18;100.00;99436.31;5030778;28;20517;-45
2023/07/31 02:16:46;;;;;;;1.90;1.10;;;;;;;16.18;100.00;99441.09;5033296;28;20046;-45
2023/07/31 02:19:13;;;;;;;1.83;1.00;;;;;;;16.18;100.00;99441.09;5033913;28;20052;-47
2023/07/31 02:21:40;;;;;;;2.38;0.60;;;;;;;16.19;100.00;99437.91;5034454;28;20049;-46
2023/07/31 02:24:07;;;;;;;1.00;0.70;;;;;;;16.19;100.00;99437.91;5034496;28;20049;-45
2023/07/31 02:26:34;;;;;;;1.23;0.65;;;;;;;16.19;100.00;99437.09;5033990;28;20057;-46
2023/07/31 02:29:00;;;;;;;0.60;0.57;;;;;;;16.19;100.00;99443.50;5034138;28;20492;-47
2023/07/31 02:31:27;;;;;;;1.25;0.70;;;;;;;16.19;100.00;99437.91;5035119;28;20490;-47
2023/07/31 02:33:54;;;;;;;2.08;0.60;;;;;;;16.19;100.00;99437.91;5034259;28;20052;-45
2023/07/31 02:36:21;;;;;;;1.25;0.70;;;;;;;16.18;100.00;99432.72;5033836;28;20095;-45
2023/07/31 02:38:48;;;;;;;2.05;0.70;;;;;;;16.17;100.00;99434.75;5034000;28;20786;-45
2023/07/31 02:41:14;;;;;;;1.73;0.75;;;;;;;16.18;100.00;99438.31;5033196;28;20053;-46
2023/07/31 02:43:41;;;;;;;1.00;0.70;;;;;;;16.16;100.00;99438.72;5033748;28;20490;-45
2023/07/31 02:46:08;;;;;;;0.68;0.47;;;;;;;16.15;100.00;99431.56;5033905;28;20487;-45
2023/07/31 02:48:35;;;;;;;2.47;0.70;;;;;;;16.16;100.00;99437.94;5033133;28;20056;-45
2023/07/31 02:51:02;;;;;;;2.17;0.80;;;;;;;16.16;100.00;99427.56;5034046;28;20045;-45
2023/07/31 02:53:28;;;;;;;1.70;0.68;;;;;;;16.17;100.00;99428.34;5033030;28;20068;-44
2023/07/31 02:55:57;;;;;;;1.67;0.65;;;;;;;16.15;100.00;99425.97;5033661;28;20041;-45
2023/07/31 02:58:24;;;;;;;1.17;0.50;;;;;;;16.14;100.00;99424.41;5033622;28;20084;-49
2023/07/31 03:00:51;;;;;;;2.72;0.68;;;;;;;16.14;100.00;99423.59;5033806;28;20042;-46
2023/07/31 03:03:18;;;;;;;0.40;0.40;;;;;;;16.13;100.00;99411.63;5033438;28;20056;-47
2023/07/31 03:05:45;;;;;;;0.93;0.57;;;;;;;16.13;100.00;99417.22;5033543;28;20068;-45
2023/07/31 03:08:13;;;;;;;1.08;0.60;;;;;;;16.12;100.00;99418.44;5033216;28;20048;-45
2023/07/31 03:10:39;;;;;;;1.65;0.63;;;;;;;16.11;100.00;99407.66;5026362;28;20562;-45
2023/07/31 03:13:07;;;;;;;0.50;0.43;;;;;;;16.10;100.00;99395.69;5031751;28;20052;-45
2023/07/31 03:15:33;;;;;;;1.45;0.28;;;;;;;16.10;100.00;99406.06;5033413;28;20112;-45
2023/07/31 03:18:00;;;;;;;2.70;0.38;;;;;;;16.11;100.00;99407.66;5033282;28;20479;-45
2023/07/31 03:20:27;;;;;;;2.97;0.50;;;;;;;16.12;100.00;99414.84;5032295;28;20136;-45
2023/07/31 03:22:54;;;;;;;1.38;0.38;;;;;;;16.12;100.00;99412.06;5033327;28;20041;-45
2023/07/31 03:25:21;;;;;;;0.63;0.45;;;;;;;16.11;100.00;99418.84;5031252;28;20061;-44
2023/07/31 03:27:47;;;;;;;2.03;0.52;;;;;;;16.12;100.00;99420.44;5031885;28;20152;-45
2023/07/31 03:30:14;;;;;;;0.82;0.40;;;;;;;16.11;100.00;99419.63;5033219;28;20057;-45
2023/07/31 03:32:41;;;;;;;1.00;0.55;;;;;;;16.11;100.00;99425.22;5033108;28;20071;-44
2023/07/31 03:35:08;;;;;;;2.75;0.35;;;;;;;16.10;100.00;99412.47;5033466;28;20060;-45
2023/07/31 03:37:35;;;;;;;1.38;0.93;;;;;;;16.11;100.00;99402.09;5032936;28;20488;-45
2023/07/31 03:40:02;;;;;;;1.17;0.50;;;;;;;16.10;100.00;99411.66;5033074;28;20051;-45
2023/07/31 03:42:29;;;;;;;0.63;0.30;;;;;;;16.09;100.00;99405.31;5032852;28;20601;-45
2023/07/31 03:44:55;;;;;;;3.70;0.30;;;;;;;16.10;100.00;99398.50;5032589;28;20070;-46
2023/07/31 03:47:22;;;;;;;1.13;0.70;;;;;;;16.10;100.00;99394.91;5033132;28;20053;-44
2023/07/31 03:49:49;;;;;;;0.60;0.40;;;;;;;16.08;100.00;99395.34;5019431;28;20057;-45
2023/07/31 03:52:18;;;;;;;0.40;0.40;;;;;;;16.08;100.00;99381.38;5031431;28;20446;-45
2023/07/31 03:54:45;;;;;;;1.17;0.25;;;;;;;16.04;100.00;99372.25;5032629;28;20491;-44
2023/07/31 03:57:12;;;;;;;2.33;0.43;;;;;;;16.05;100.00;99381.41;5032623;28;20033;-44
2023/07/31 03:59:39;;;;;;;1.60;0.52;;;;;;;16.04;100.00;99385.41;5032356;28;20392;-45
2023/07/31 04:02:06;;;;;;;0.98;0.25;;;;;;;16.03;100.00;99390.22;5032374;28;20045;-45
2023/07/31 04:04:33;;;;;;;1.90;0.50;;;;;;;16.03;100.00;99384.63;5032834;28;20051;-45
2023/07/31 04:07:02;;;;;;;2.45;0.25;;;;;;;16.02;100.00;99383.03;5031483;28;20049;-47
2023/07/31 04:09:28;;;;;;;0.30;0.30;;;;;;;16.03;100.00;99390.22;5032611;28;20072;-46
2023/07/31 04:11:56;;;;;;;0.47;0.20;;;;;;;16.03;100.00;99383.81;5032313;28;20141;-45
2023/07/31 04:14:23;;;;;;;1.13;0.28;;;;;;;16.03;100.00;99379.03;5031964;28;20073;-45
2023/07/31 04:16:50;;;;;;;3.63;0.40;;;;;;;16.02;100.00;99394.19;5032195;28;20144;-46
2023/07/31 04:19:17;;;;;;;0.52;0.30;;;;;;;16.01;100.00;99392.63;5031815;28;20045;-46
2023/07/31 04:21:44;;;;;;;3.35;1.10;;;;;;;15.99;100.00;99397.81;5032251;28;20064;-46
2023/07/31 04:24:11;;;;;;;3.58;0.73;;;;;;;15.99;100.00;99403.38;5032013;28;20068;-45
2023/07/31 04:26:38;;;;;;;3.33;0.40;;;;;;;15.98;100.00;99404.63;5031510;28;20149;-45
2023/07/31 04:29:05;;;;;;;2.60;0.40;;;;;;;15.98;100.00;99421.38;5045764;28;20088;-47
2023/07/31 04:31:33;;;;;;;1.02;0.30;;;;;;;15.99;100.00;99422.16;5032100;28;20052;-46
2023/07/31 04:34:03;;;;;;;1.27;0.30;;;;;;;15.98;100.00;99423.34;5031250;28;20065;-45
2023/07/31 04:36:30;;;;;;;0.75;0.60;;;;;;;15.98;100.00;99410.19;5031888;28;20049;-45
2023/07/31 04:38:57;;;;;;;0.22;0.20;;;;;;;15.97;100.00;99416.97;5031833;28;20447;-46
2023/07/31 04:41:23;;;;;;;0.98;0.32;;;;;;;15.96;100.00;99398.66;5031564;28;20395;-46
2023/07/31 04:43:51;;;;;;;1.45;0.35;;;;;;;15.97;100.00;99405.81;5031633;28;20049;-45
2023/07/31 04:46:18;;;;;;;0.40;0.40;;;;;;;15.98;100.00;99403.81;5031694;28;20058;-45
2023/07/31 04:48:45;;;;;;;2.03;0.22;;;;;;;15.97;100.00;99391.06;5030675;28;20469;-45
2023/07/31 04:51:11;;;;;;;0.98;0.47;;;;;;;15.96;100.00;99397.88;5031253;28;21200;-45
2023/07/31 04:53:38;;;;;;;1.20;0.45;;;;;;;15.95;100.00;99402.66;5031495;28;21025;-45
2023/07/31 04:56:05;;;;;;;0.63;0.20;;;;;;;15.96;100.00;99401.44;5031670;28;20443;-46
2023/07/31 04:58:32;;;;;;;2.75;0.38;;;;;;;15.95;100.00;99405.44;5031458;28;20041;-45
2023/07/31 05:00:58;;;;;;;0.75;0.35;;;;;;;15.93;100.00;99396.69;5031101;28;20061;-45
2023/07/31 05:03:25;;;;;;;1.60;0.40;;;;;;;15.93;100.00;99398.69;5029950;28;20539;-47
2023/07/31 05:05:52;;;;;;;1.42;0.28;;;;;;;15.93;100.00;99405.06;5031613;28;20423;-46
2023/07/31 05:08:19;;;;;;;0.50;0.32;;;;;;;15.90;100.00;99408.69;5030946;28;20041;-46
2023/07/31 05:10:46;;;;;;;0.30;0.30;;;;;;;15.91;100.00;99415.84;5031322;28;20503;-46
2023/07/31 05:13:13;;;;;;;1.92;0.30;;;;;;;15.92;100.00;99417.44;5031185;28;20542;-48
2023/07/31 05:15:41;;;;;;;1.70;0.50;;;;;;;15.91;100.00;99427.03;5031184;28;20049;-45
2023/07/31 05:18:08;;;;;;;0.55;0.28;;;;;;;15.89;100.00;99415.47;5031312;28;20041;-44
2023/07/31 05:20:34;;;;;;;3.03;0.28;;;;;;;15.88;100.00;99415.88;5031298;28;20041;-45
2023/07/31 05:23:01;;;;;;;0.40;0.40;;;;;;;15.87;100.00;99417.06;5031077;28;20446;-46
2023/07/31 05:25:28;;;;;;;1.00;0.30;;;;;;;15.86;100.00;99413.50;5030193;28;20116;-47
2023/07/31 05:27:55;;;;;;;1.38;0.50;;;;;;;15.85;100.00;99406.34;5018152;28;20075;-45
2023/07/31 05:30:22;;;;;;;4.30;0.88;;;;;;;15.84;100.00;99415.91;5031019;28;20041;-46
2023/07/31 05:32:49;;;;;;;2.30;0.80;;;;;;;15.84;100.00;99415.91;5031315;28;20049;-44
2023/07/31 05:35:16;;;;;;;0.95;0.40;;;;;;;15.81;100.00;99416.72;5030994;28;20053;-48
2023/07/31 05:37:42;;;;;;;3.28;0.50;;;;;;;15.79;100.00;99413.56;5031357;28;20045;-46
2023/07/31 05:40:09;;;;;;;2.88;0.60;;;;;;;15.76;100.00;99406.81;5031643;28;20041;-45
2023/07/31 05:42:38;;;;;;;2.00;0.68;;;;;;;15.74;100.00;99400.84;5031005;28;20049;-48
2023/07/31 05:45:06;;;;;;;3.15;0.85;;;;;;;15.73;100.00;99401.25;5031039;28;20044;-48
2023/07/31 05:47:33;;;;;;;2.17;0.85;;;;;;;15.73;100.00;99392.88;5031251;28;20422;-50
2023/07/31 05:50:00;;;;;;;2.25;0.80;;;;;;;15.73;100.00;99393.69;5030617;28;20495;-48
2023/07/31 05:52:28;;;;;;;1.13;0.65;;;;;;;15.76;100.00;99390.06;5035006;28;20081;-45
2023/07/31 05:54:55;;;;;;;2.97;0.70;;;;;;;15.76;100.00;99389.25;5034777;28;20044;-45
2023/07/31 05:57:22;;;;;;;1.95;0.73;;;;;;;15.74;100.00;99389.69;5035125;28;20041;-45
2023/07/31 05:59:49;;;;;;;4.18;1.27;;;;;;;15.73;100.00;99406.84;5034311;28;20080;-46
2023/07/31 06:02:18;;;;;;;4.32;1.25;;;;;;;15.72;100.00;99402.47;5034875;28;20049;-45
2023/07/31 06:04:44;;;;;;;2.67;1.02;;;;;;;15.72;100.00;99396.91;5034530;28;20049;-45
2023/07/31 06:07:11;;;;;;;3.67;1.08;;;;;;;15.72;100.00;99405.25;5034684;28;20037;-46
2023/07/31 06:09:38;;;;;;;4.35;1.02;;;;;;;15.71;100.00;99400.88;5035053;28;20041;-45
2023/07/31 06:12:05;;;;;;;1.33;0.80;;;;;;;15.69;100.00;99387.34;5034284;28;20075;-48
2023/07/31 06:14:32;;;;;;;3.03;0.98;;;;;;;15.70;100.00;99379.78;5034697;28;20046;-48
2023/07/31 06:16:59;;;;;;;2.97;1.45;;;;;;;15.68;100.00;99373.78;5034111;28;20046;-45
2023/07/31 06:19:26;;;;;;;3.67;1.35;;;;;;;15.65;100.00;99381.00;5034231;28;20045;-46
2023/07/31 06:21:52;;;;;;;5.75;1.35;;;;;;;15.62;100.00;99381.81;5034498;28;20434;-46
2023/07/31 06:24:20;;;;;;;2.45;1.10;;;;;;;15.59;100.00;99376.28;5033924;28;20434;-47
2023/07/31 06:26:50;;;;;;;5.85;1.00;;;;;;;15.58;100.00;99374.69;5031437;28;20062;-47
2023/07/31 06:29:17;;;;;;;2.28;1.25;;;;;;;15.55;100.00;99364.34;5032845;28;20084;-46
2023/07/31 06:31:44;;;;;;;3.92;1.00;;;;;;;15.51;100.00;99358.03;5034319;28;20468;-45
2023/07/31 06:34:11;;;;;;;2.60;1.33;;;;;;;15.51;100.00;99346.88;5033659;28;20427;-48
2023/07/31 06:36:38;;;;;;;5.15;1.40;;;;;;;15.51;100.00;99358.03;5034268;28;20395;-52
2023/07/31 06:39:05;;;;;;;5.03;1.13;;;;;;;15.52;100.00;99348.44;5034233;28;20128;-45
2023/07/31 06:41:32;;;;;;;3.67;1.23;;;;;;;15.51;100.00;99363.59;5033532;28;20048;-45
2023/07/31 06:43:58;;;;;;;3.55;1.60;;;;;;;15.51;100.00;99363.59;5033963;28;20056;-45
2023/07/31 06:46:25;;;;;;;4.60;1.60;;;;;;;15.52;100.00;99384.69;5033843;28;20050;-46
2023/07/31 06:48:52;;;;;;;6.35;2.17;;;;;;;15.50;100.00;99393.50;5032556;28;20526;-45
2023/07/31 06:51:19;;;;;;;7.75;2.28;;;;;;;15.50;100.00;99403.84;5033577;28;20034;-48
2023/07/31 06:53:46;;;;;;;5.65;1.67;;;;;;;15.51;100.00;99411.03;5033600;28;20053;-45
2023/07/31 06:56:13;;;;;;;5.15;1.50;;;;;;;15.52;100.00;99415.38;5033460;28;20049;-46
2023/07/31 06:58:40;;;;;;;4.93;2.38;;;;;;;15.52;100.00;99413.38;5033697;28;20088;-46
2023/07/31 07:01:07;;;;;;;5.00;2.05;;;;;;;15.53;100.00;99405.81;5032799;28;20439;-45
2023/07/31 07:03:34;;;;;;;5.35;1.40;;;;;;;15.54;100.00;99408.19;5031428;28;20380;-46
2023/07/31 07:06:01;;;;;;;6.10;1.80;;;;;;;15.55;100.00;99400.63;5032102;28;20049;-47
2023/07/31 07:08:29;;;;;;;7.10;1.65;;;;;;;15.53;100.00;99380.72;5029883;28;20567;-44
2023/07/31 07:10:55;;;;;;;6.43;1.65;;;;;;;15.52;100.00;99385.50;5027299;28;20045;-45
2023/07/31 07:13:22;;;;;;;5.75;1.75;;;;;;;15.51;100.00;99375.56;5034045;28;20414;-45
2023/07/31 07:15:49;;;;;;;5.40;2.25;;;;;;;15.50;100.00;99373.16;5033407;28;20049;-45
2023/07/31 07:18:16;;;;;;;4.93;2.05;;;;;;;15.49;100.00;99386.31;5033517;28;20037;-43
2023/07/31 07:20:51;;;;;;;7.65;2.05;;;;;;;15.49;100.00;99382.75;5033223;28;20081;-48
2023/07/31 07:23:19;;;;;;;3.58;1.52;;;;;;;15.49;100.00;99379.97;5033167;28;20037;-45
2023/07/31 07:25:47;;;;;;;4.72;1.75;;;;;;;15.49;100.00;99379.97;5031638;28;20426;-45
2023/07/31 07:28:16;;;;;;;5.82;1.70;;;;;;;15.48;100.00;99375.56;5033167;28;20046;-44
2023/07/31 07:30:43;;;;;;;5.10;1.83;;;;;;;15.49;100.00;99391.88;5032999;28;20041;-45
2023/07/31 07:33:11;;;;;;;5.28;1.70;;;;;;;15.52;100.00;99387.47;5033348;28;20045;-45
2023/07/31 07:35:38;;;;;;;5.45;1.73;;;;;;;15.52;100.00;99390.28;5032194;28;20065;-45
2023/07/31 07:38:05;;;;;;;7.13;1.40;;;;;;;15.53;100.00;99394.66;5031414;28;20088;-46
2023/07/31 07:40:32;;;;;;;4.38;1.35;;;;;;;15.52;100.00;99398.63;5031844;28;20395;-44
2023/07/31 07:43:00;;;;;;;2.80;1.50;;;;;;;15.50;100.00;99387.91;5032469;28;20569;-44
2023/07/31 07:45:26;;;;;;;11.18;2.90;;;;;;;15.49;100.00;99371.59;5032571;28;20065;-44
2023/07/31 07:47:53;;;;;;;7.38;1.20;;;;;;;15.51;100.00;99369.19;5032472;28;20045;-44
2023/07/31 07:50:20;;;;;;;6.95;1.77;;;;;;;15.51;100.00;99364.41;5032398;28;20076;-44
2023/07/31 07:52:47;;;;;;;7.88;2.03;;;;;;;15.54;100.00;99357.19;5031243;28;20644;-44
2023/07/31 07:55:14;;;;;;;4.75;1.40;;;;;;;15.56;100.00;99352.78;5032973;28;20037;-44
2023/07/31 07:57:40;;;;;;;2.72;1.30;;;;;;;15.58;100.00;99355.16;5032390;28;20045;-45
2023/07/31 08:00:10;;;;;;;5.90;2.28;;;;;;;15.62;100.00;99353.16;5032382;28;20042;-44
2023/07/31 08:02:38;;;;;;;3.38;0.93;;;;;;;15.68;100.00;99354.25;5032572;28;20061;-44
2023/07/31 08:05:05;;;;;;;5.65;1.40;;;;;;;15.73;100.00;99348.22;5032754;28;20132;-45
2023/07/31 08:07:32;;;;;;;6.35;1.33;;;;;;;15.74;100.00;99347.03;5032276;28;20385;-45
2023/07/31 08:09:58;;;;;;;4.10;1.50;;;;;;;15.73;100.00;99348.22;5032575;28;20034;-44
2023/07/31 08:12:25;;;;;;;6.35;1.10;;;;;;;15.73;100.00;99348.22;5032404;28;20045;-48
2023/07/31 08:14:52;;;;;;;6.22;1.40;;;;;;;15.76;100.00;99367.75;5032042;28;20129;-45
2023/07/31 08:17:19;;;;;;;2.22;1.00;;;;;;;15.76;100.00;99366.94;5032265;28;20056;-44
2023/07/31 08:19:46;;;;;;;3.78;1.30;;;;;;;15.81;100.00;99360.91;5032158;28;20053;-45
2023/07/31 08:22:14;;;;;;;6.07;1.50;;;;;;;15.85;100.00;99389.59;5032287;28;20128;-47
2023/07/31 08:24:41;;;;;;;3.80;1.35;;;;;;;15.90;100.00;99399.50;5018846;28;20061;-44
2023/07/31 08:27:07;;;;;;;2.90;1.00;;;;;;;15.92;100.00;99411.84;5030499;28;20488;-47
2023/07/31 08:29:34;;;;;;;2.38;0.70;;;;;;;15.91;100.00;99423.44;5019394;28;20053;-44
2023/07/31 08:32:01;;;;;;;6.35;1.58;;;;;;;15.86;100.00;99423.88;5030644;28;20041;-46
2023/07/31 08:34:28;;;;;;;2.72;1.65;;;;;;;15.83;100.00;99431.84;5032054;28;20633;-45
2023/07/31 08:36:56;;;;;;;7.72;1.67;;;;;;;15.81;100.00;99422.31;5031839;28;20083;-44
2023/07/31 08:39:22;;;;;;;7.68;1.65;;;;;;;15.78;100.00;99426.72;5031981;28;20045;-44
2023/07/31 08:41:49;;;;;;;7.95;1.60;;;;;;;15.74;100.00;99427.97;5032174;28;20049;-45
2023/07/31 08:44:17;;;;;;;9.30;1.48;;;;;;;15.68;100.00;99424.03;5031903;28;20065;-45
2023/07/31 08:46:47;;;;;;;9.25;2.55;;;;;;;15.67;100.00;99416.88;5027489;28;20061;-43
2023/07/31 08:49:14;;;;;;;11.75;1.75;;;;;;;15.68;100.00;99413.66;5031952;28;20435;-45
2023/07/31 08:51:42;;;;;;;12.85;2.25;;;;;;;15.77;100.00;99414.00;5031704;28;20058;-44
2023/07/31 08:54:09;;;;;;;8.57;2.30;;;;;;;15.82;100.00;99402.38;5031890;28;20487;-46
2023/07/31 08:56:36;;;;;;;6.30;1.80;;;;;;;15.87;100.00;99398.34;5030038;28;20057;-44
2023/07/31 08:59:04;;;;;;;13.95;2.00;;;;;;;15.93;100.00;99385.53;5031367;28;20542;-45
2023/07/31 09:01:37;;;;;;;10.20;2.08;;;;;;;15.95;100.00;99388.69;5031672;28;20103;-45
2023/07/31 09:04:05;;;;;;;10.63;2.00;;;;;;;15.97;100.00;99374.31;5029864;28;20047;-45
2023/07/31 09:06:33;;;;;;;8.07;2.38;;;;;;;15.99;100.00;99371.91;5031075;28;20053;-44
2023/07/31 09:09:00;;;;;;;8.32;1.95;;;;;;;15.98;100.00;99371.13;5030239;28;20084;-48
2023/07/31 09:11:27;;;;;;;15.98;1.77;;;;;;;15.98;100.00;99362.75;5031378;28;20045;-45
2023/07/31 09:13:58;;;;;;;5.85;1.70;;;;;;;16.02;100.00;99362.72;5031140;28;20055;-44
2023/07/31 09:16:31;;;;;;;13.02;3.22;;;;;;;16.03;100.00;99365.06;5030899;28;20107;-44
2023/07/31 09:19:01;;;;;;;11.82;2.10;;;;;;;15.99;99.80;99358.72;5031356;28;20046;-48
2023/07/31 09:21:28;;;;;;;10.52;2.05;;;;;;;15.99;99.87;99367.09;5031331;28;20483;-45
2023/07/31 09:23:55;;;;;;;10.82;2.72;;;;;;;15.97;99.88;99374.31;5031167;28;20052;-44
2023/07/31 09:26:30;;;;;;;12.93;2.65;;;;;;;15.97;99.91;99385.47;5025289;28;20049;-45
2023/07/31 09:28:58;;;;;;;13.45;2.45;;;;;;;15.94;99.75;99398.25;5026730;28;20045;-44
2023/07/31 09:31:42;;;;;;;7.95;2.33;;;;;;;15.86;99.56;99391.16;5031177;28;20041;-44
2023/07/31 09:34:11;;;;;;;7.38;2.13;;;;;;;15.82;99.47;99407.16;5030932;28;20047;-45
2023/07/31 09:37:00;;;;;;;7.10;1.88;;;;;;;15.73;99.32;99404.84;5030099;28;20156;-45
2023/07/31 09:39:29;;;;;;;8.18;1.92;;;;;;;15.69;99.39;99403.28;5031018;28;20136;-45
2023/07/31 09:41:57;;;;;;;10.18;2.00;;;;;;;15.71;99.54;99412.84;5030666;28;20057;-46
2023/07/31 09:44:53;;;;;;;11.70;3.25;;;;;;;15.70;99.28;99416.81;5029103;28;20042;-45
2023/07/31 09:47:26;;;;;;;7.03;1.85;;;;;;;15.68;99.14;99415.66;5008991;28;20050;-44
2023/07/31 09:49:53;;;;;;;11.52;2.47;;;;;;;15.66;99.18;99418.06;5030732;28;20045;-45
2023/07/31 09:52:20;;;;;;;16.08;2.58;;;;;;;15.63;99.00;99410.50;5030635;28;20557;-45
2023/07/31 09:54:48;;;;;;;11.48;2.08;;;;;;;15.64;99.16;99404.53;5030891;28;20530;-45
2023/07/31 09:57:17;;;;;;;9.63;3.15;;;;;;;15.67;99.17;99397.34;5030346;28;20048;-44
2023/07/31 09:59:46;;;;;;;12.90;3.17;;;;;;;15.70;99.07;99404.88;5030804;28;20052;-44
2023/07/31 10:02:19;;;;;;;9.95;2.03;;;;;;;15.71;98.78;99406.47;5030701;28;20045;-45
2023/07/31 10:04:49;;;;;;;12.40;2.20;;;;;;;15.70;98.70;99399.31;5025832;28;20050;-45
2023/07/31 10:07:18;;;;;;;7.63;2.00;;;;;;;15.68;98.52;99393.31;5031125;28;20041;-45
2023/07/31 10:09:47;;;;;;;10.07;2.28;;;;;;;15.69;98.41;99381.78;5030611;28;20534;-44
2023/07/31 10:12:19;;;;;;;17.38;2.47;;;;;;;15.72;98.44;99396.91;5030837;28;20056;-44
2023/07/31 10:14:45;;;;;;;9.35;1.98;;;;;;;15.73;98.32;99382.50;5030409;28;20435;-47
2023/07/31 10:17:13;;;;;;;7.47;1.92;;;;;;;15.74;98.15;99375.75;5030693;28;20496;-44
2023/07/31 10:19:42;;;;;;;14.48;2.38;;;;;;;15.73;98.11;99381.72;5028911;28;20080;-44
2023/07/31 10:22:09;;;;;;;12.50;2.55;;;;;;;15.69;98.02;99375.38;5031029;28;20049;-44
2023/07/31 10:24:42;;;;;;;11.02;3.08;;;;;;;15.66;98.31;99376.22;5030283;28;20504;-44
2023/07/31 10:27:10;;;;;;;15.20;2.35;;;;;;;15.64;98.63;99375.84;5030127;28;20499;-45
2023/07/31 10:29:38;;;;;;;7.57;2.85;;;;;;;15.63;98.67;99371.44;5030382;28;20480;-44
2023/07/31 10:32:10;;;;;;;9.13;2.85;;;;;;;15.61;98.86;99374.66;5030329;28;20103;-45
2023/07/31 10:34:40;;;;;;;9.93;2.42;;;;;;;15.59;99.05;99377.09;5030643;28;20045;-44
2023/07/31 10:37:26;;;;;;;11.25;2.38;;;;;;;15.55;99.15;99381.09;5032150;28;20052;-44
2023/07/31 10:39:57;;;;;;;6.75;2.47;;;;;;;15.52;99.40;99379.13;5034393;28;20049;-43
2023/07/31 10:42:54;;;;;;;6.75;1.92;;;;;;;15.50;99.64;99390.69;5033874;28;20049;-47
2023/07/31 10:45:38;;;;;;;8.13;2.22;;;;;;;15.55;99.68;99389.47;5013649;28;20060;-44
2023/07/31 10:48:06;;;;;;;11.70;2.55;;;;;;;15.60;99.72;99394.59;5033934;28;20045;-44
2023/07/31 10:50:38;;;;;;;12.82;3.00;;;;;;;15.62;99.95;99392.22;5033767;28;20049;-44
2023/07/31 10:53:06;;;;;;;8.60;2.78;;;;;;;15.64;99.82;99384.22;5033726;28;20087;-45
2023/07/31 10:55:40;;;;;;;6.68;2.20;;;;;;;15.66;100.00;99382.59;5033668;28;20781;-44
2023/07/31 10:58:11;;;;;;;11.15;2.45;;;;;;;15.74;100.00;99383.31;5033378;28;20059;-45
2023/07/31 11:00:40;;;;;;;15.38;3.92;;;;;;;15.87;100.00;99375.22;5033838;28;20108;-44
2023/07/31 11:03:15;;;;;;;8.35;2.05;;;;;;;16.09;100.00;99366.22;5033723;28;20056;-43
2023/07/31 11:05:45;;;;;;;9.20;2.88;;;;;;;16.32;99.76;99357.16;5033639;28;20053;-43
2023/07/31 11:08:16;;;;;;;7.53;1.80;;;;;;;16.60;99.31;99364.44;5033524;28;20034;-43
2023/07/31 11:10:44;;;;;;;8.10;1.98;;;;;;;16.76;98.92;99364.63;5033260;28;20075;-45
2023/07/31 11:13:11;;;;;;;7.13;2.10;;;;;;;16.82;98.92;99357.34;5033225;28;20048;-46
2023/07/31 11:15:38;;;;;;;11.45;2.15;;;;;;;16.80;98.84;99354.97;5045887;28;20418;-44
2023/07/31 11:18:05;;;;;;;13.77;3.20;;;;;;;16.76;98.70;99359.03;5034214;28;20041;-46
2023/07/31 11:20:33;;;;;;;7.95;2.03;;;;;;;16.72;98.81;99358.28;5033289;28;20657;-45
2023/07/31 11:23:06;;;;;;;8.30;2.00;;;;;;;16.70;98.93;99364.31;5032970;28;20038;-44
2023/07/31 11:25:33;;;;;;;13.30;2.03;;;;;;;16.73;98.98;99359.88;5033345;28;20057;-45
2023/07/31 11:28:11;;;;;;;7.15;2.47;;;;;;;16.80;98.76;99359.78;5033076;28;20061;-44
2023/07/31 11:30:42;;;;;;;7.22;2.47;;;;;;;16.85;98.72;99351.72;5033065;28;20057;-44
2023/07/31 11:33:10;;;;;;;6.28;2.22;;;;;;;16.89;98.61;99374.78;5033009;28;20054;-44